Main page
METAR-TAF:

METAR-TAF

Airports :

Fitch H. Beach Airport

Charlotte, Michigan, United States

latitude: 42-34-28N, longitude: 084-48-41W, elevation: 889 ft

Current weather observation

The report was made 29 minutes ago, at 19:35 UTC
Wind 9 mph from the Northeast
Temperature 43°F
Humidity 61%
Pressure 30.24 in. Hg
Visibility: 10 miles
Overcast at a height of 3100 ft

METAR: KFPK 241935Z AUTO 05008KT 10SM OVC031 06/M01 A3024 RMK AO2

Time: 16:04 (20:04 UTC)


TAF: missing

Weather observations and forecasts of more than 4000 airports (METAR and TAF reports).

The available stations are represented by yellow and red dots on the map.

Hover mouse over dot to see the name of the station.

Then click to see weather observations and forecasts.

To change the map : click on the green buttons with a black cross to zoom in, on the green button with a dash to zoom out, or on the green arrows for adjacent maps.


METAR-TAF: